Time;durP1;ratioP1;P1;durP2;ratioP2;P2;SDS_P1;SDS_P2;PMS_P1;PMS_P2;Temp;Humidity;BMP_temperature;BMP_pressure;BME280_temperature;BME280_humidity;BME280_pressure;Samples;Min_cycle;Max_cycle;Signal;HPM_P1;HPM_P2
2022/07/17 00:00:43;;;;;;;6.72;0.75;;;15.00;94.30;;;;;;4987569;28;20049;-44
2022/07/17 00:03:14;;;;;;;4.07;0.80;;;15.00;94.10;;;;;;4987063;28;20496;-44
2022/07/17 00:05:41;;;;;;;3.13;0.70;;;15.00;94.30;;;;;;4989140;28;20364;-43
2022/07/17 00:08:07;;;;;;;2.25;1.10;;;15.00;94.20;;;;;;4986733;28;20072;-43
2022/07/17 00:10:39;;;;;;;2.95;1.00;;;14.90;94.30;;;;;;5005134;28;20445;-43
2022/07/17 00:13:05;;;;;;;4.35;1.20;;;14.80;94.30;;;;;;4988112;28;20081;-44
2022/07/17 00:15:32;;;;;;;3.55;0.88;;;14.80;94.30;;;;;;4989647;28;20137;-44
2022/07/17 00:17:58;;;;;;;2.90;0.80;;;14.80;94.30;;;;;;4989309;28;20113;-44
2022/07/17 00:20:26;;;;;;;5.32;1.00;;;14.70;94.60;;;;;;4985496;28;20030;-43
2022/07/17 00:22:54;;;;;;;2.60;0.80;;;14.70;94.70;;;;;;4986927;28;20042;-43
2022/07/17 00:25:19;;;;;;;3.17;1.10;;;14.70;94.90;;;;;;4986983;28;20468;-44
2022/07/17 00:27:45;;;;;;;2.00;0.88;;;14.60;95.10;;;;;;4987153;28;20042;-43
2022/07/17 00:30:12;;;;;;;6.57;1.20;;;14.60;95.50;;;;;;4986138;28;20073;-43
2022/07/17 00:32:38;;;;;;;2.83;0.90;;;14.50;95.80;;;;;;4987796;28;20116;-43
2022/07/17 00:35:04;;;;;;;2.08;0.75;;;14.40;96.00;;;;;;4982438;28;20045;-42
2022/07/17 00:37:30;;;;;;;2.78;0.88;;;14.30;96.20;;;;;;4985186;28;20480;-43
2022/07/17 00:39:56;;;;;;;4.38;1.05;;;14.20;97.00;;;;;;4985594;28;20172;-43
2022/07/17 00:42:22;;;;;;;2.33;0.70;;;14.20;96.80;;;;;;4985135;28;20035;-43
2022/07/17 00:44:47;;;;;;;2.97;0.98;;;14.20;97.00;;;;;;4985703;28;20085;-42
2022/07/17 00:47:16;;;;;;;2.97;0.90;;;14.10;97.60;;;;;;4984159;28;20093;-42
2022/07/17 00:49:41;;;;;;;2.35;0.85;;;14.10;98.50;;;;;;4987502;28;20041;-42
2022/07/17 00:52:09;;;;;;;2.97;0.68;;;14.10;98.30;;;;;;4982768;28;20435;-42
2022/07/17 00:54:38;;;;;;;2.03;0.70;;;14.00;98.30;;;;;;4986550;28;20070;-45
2022/07/17 00:57:07;;;;;;;3.38;1.10;;;14.00;98.30;;;;;;4986851;28;20053;-42
2022/07/17 00:59:34;;;;;;;2.17;0.80;;;14.00;98.40;;;;;;4986864;28;20556;-43
2022/07/17 01:02:02;;;;;;;1.75;0.90;;;14.00;98.00;;;;;;4987180;28;20039;-44
2022/07/17 01:04:28;;;;;;;4.57;0.90;;;14.00;97.80;;;;;;4986858;28;20034;-41
2022/07/17 01:06:53;;;;;;;2.22;0.93;;;14.00;97.90;;;;;;4984101;28;20084;-42
2022/07/17 01:09:19;;;;;;;2.60;0.95;;;13.90;98.00;;;;;;4983337;28;20104;-42
2022/07/17 01:11:45;;;;;;;2.92;1.02;;;13.90;97.80;;;;;;4981650;28;20049;-44
2022/07/17 01:14:11;;;;;;;2.80;1.20;;;13.80;97.80;;;;;;4986960;28;20042;-43
2022/07/17 01:16:37;;;;;;;5.35;1.70;;;13.70;97.90;;;;;;4985720;28;20042;-46
2022/07/17 01:19:03;;;;;;;4.20;1.25;;;13.70;97.90;;;;;;4980373;28;20073;-42
2022/07/17 01:21:43;;;;;;;2.95;1.00;;;13.70;98.20;;;;;;4982862;28;20041;-42
2022/07/17 01:24:09;;;;;;;5.38;1.17;;;13.60;98.70;;;;;;4984305;28;20053;-44
2022/07/17 01:26:34;;;;;;;2.30;1.15;;;13.60;98.30;;;;;;4987189;28;20038;-46
2022/07/17 01:29:00;;;;;;;4.53;1.70;;;13.50;98.40;;;;;;4985962;28;20085;-44
2022/07/17 01:31:26;;;;;;;5.13;1.10;;;13.50;98.20;;;;;;4988660;28;20034;-43
2022/07/17 01:33:52;;;;;;;3.65;1.17;;;13.50;98.10;;;;;;4986826;28;20038;-43
2022/07/17 01:36:24;;;;;;;3.85;1.10;;;13.50;98.00;;;;;;4986693;28;20086;-44
2022/07/17 01:38:50;;;;;;;2.55;1.15;;;13.50;98.10;;;;;;4984654;28;20133;-44
2022/07/17 01:41:16;;;;;;;2.58;0.93;;;13.50;98.00;;;;;;4986794;28;20048;-44
2022/07/17 01:43:42;;;;;;;4.15;1.30;;;13.50;98.30;;;;;;4982652;28;20042;-44
2022/07/17 01:46:07;;;;;;;2.60;1.17;;;13.50;98.30;;;;;;4985756;28;20038;-44
2022/07/17 01:48:33;;;;;;;1.65;0.98;;;13.50;98.30;;;;;;4980381;28;20038;-43
2022/07/17 01:50:59;;;;;;;4.32;1.35;;;13.40;98.30;;;;;;4985221;28;20056;-42
2022/07/17 01:53:25;;;;;;;2.15;1.05;;;13.40;98.50;;;;;;4983748;28;20064;-45
2022/07/17 01:55:51;;;;;;;3.30;1.10;;;13.30;98.50;;;;;;4969017;28;20309;-42
2022/07/17 01:58:17;;;;;;;3.20;1.23;;;13.30;98.70;;;;;;4987518;28;20034;-43
2022/07/17 02:00:42;;;;;;;3.58;1.38;;;13.30;98.70;;;;;;4981430;28;20109;-43
2022/07/17 02:03:08;;;;;;;2.88;1.20;;;13.30;98.80;;;;;;4985440;28;20116;-43
2022/07/17 02:05:34;;;;;;;2.63;1.08;;;13.30;98.80;;;;;;4984434;28;20058;-46
2022/07/17 02:08:00;;;;;;;2.42;1.45;;;13.30;99.00;;;;;;4986544;28;20353;-47
2022/07/17 02:10:26;;;;;;;4.05;1.40;;;13.20;99.10;;;;;;4976400;28;20042;-46
2022/07/17 02:12:51;;;;;;;3.38;1.42;;;13.30;99.30;;;;;;4984977;28;20096;-43
2022/07/17 02:15:17;;;;;;;5.05;1.73;;;13.20;99.60;;;;;;4986398;28;20088;-43
2022/07/17 02:17:43;;;;;;;2.75;1.30;;;13.20;99.50;;;;;;4979017;28;20046;-43
2022/07/17 02:20:10;;;;;;;4.60;1.02;;;13.20;99.30;;;;;;4978305;28;20121;-42
2022/07/17 02:22:36;;;;;;;3.40;1.17;;;13.20;99.40;;;;;;4980944;28;20142;-42
2022/07/17 02:25:03;;;;;;;2.38;1.50;;;13.20;99.70;;;;;;4986058;28;20472;-43
2022/07/17 02:27:31;;;;;;;3.15;1.75;;;13.10;99.80;;;;;;4984785;28;20487;-44
2022/07/17 02:29:57;;;;;;;2.97;1.13;;;13.10;99.90;;;;;;4982324;28;20046;-45
2022/07/17 02:32:22;;;;;;;1.75;0.95;;;13.10;99.80;;;;;;4986319;28;20377;-48
2022/07/17 02:34:48;;;;;;;1.95;1.13;;;13.10;99.90;;;;;;4980471;28;20031;-43
2022/07/17 02:37:14;;;;;;;4.03;1.20;;;13.00;99.90;;;;;;4983391;28;20057;-43
2022/07/17 02:39:52;;;;;;;2.83;1.10;;;13.00;99.90;;;;;;4981255;28;20042;-41
2022/07/17 02:42:26;;;;;;;3.63;1.20;;;13.10;99.90;;;;;;4981584;28;20038;-45
2022/07/17 02:44:53;;;;;;;2.63;0.90;;;13.10;99.90;;;;;;4984593;28;20434;-46
2022/07/17 02:47:44;;;;;;;1.83;1.00;;;13.10;99.90;;;;;;4985553;28;20081;-43
2022/07/17 02:50:10;;;;;;;2.10;0.93;;;13.10;99.90;;;;;;4978016;28;20129;-43
2022/07/17 02:52:36;;;;;;;2.22;0.90;;;13.20;99.90;;;;;;4982292;28;20133;-44
2022/07/17 02:55:02;;;;;;;2.47;1.10;;;13.10;99.90;;;;;;4982089;28;20034;-42
2022/07/17 02:57:28;;;;;;;1.65;1.05;;;13.10;99.90;;;;;;4978181;28;20039;-42
2022/07/17 02:59:54;;;;;;;2.17;1.02;;;13.10;99.90;;;;;;4982580;28;20046;-43
2022/07/17 03:02:19;;;;;;;2.42;1.05;;;13.10;99.90;;;;;;4982101;28;20040;-44
2022/07/17 03:04:45;;;;;;;2.72;1.20;;;13.10;99.90;;;;;;4980867;28;20104;-45
2022/07/17 03:07:11;;;;;;;3.80;1.20;;;13.10;99.90;;;;;;4985388;28;20039;-45
2022/07/17 03:09:37;;;;;;;1.67;0.90;;;13.00;99.90;;;;;;4982774;28;20031;-42
2022/07/17 03:12:02;;;;;;;2.40;0.93;;;13.00;99.90;;;;;;4979809;28;20049;-42
2022/07/17 03:14:28;;;;;;;1.60;0.80;;;13.00;99.90;;;;;;4980361;28;20041;-44
2022/07/17 03:16:54;;;;;;;2.97;1.27;;;12.90;99.90;;;;;;4983520;28;20041;-43
2022/07/17 03:19:19;;;;;;;3.00;1.10;;;12.90;99.90;;;;;;4979082;28;20637;-43
2022/07/17 03:21:45;;;;;;;3.25;1.15;;;12.80;99.90;;;;;;4985553;28;20492;-43
2022/07/17 03:24:11;;;;;;;3.92;1.38;;;12.80;99.90;;;;;;4983138;28;20043;-43
2022/07/17 03:26:36;;;;;;;2.55;1.05;;;12.70;99.90;;;;;;4982386;28;20587;-42
2022/07/17 03:29:02;;;;;;;3.05;1.25;;;12.70;99.90;;;;;;4980545;28;20535;-43
2022/07/17 03:31:28;;;;;;;3.35;1.00;;;12.60;99.90;;;;;;4983070;28;20038;-43
2022/07/17 03:33:53;;;;;;;3.38;0.90;;;12.50;99.90;;;;;;4978494;28;20415;-42
2022/07/17 03:36:20;;;;;;;1.67;1.02;;;12.50;99.90;;;;;;4980068;28;20113;-42
2022/07/17 03:38:45;;;;;;;2.85;1.35;;;12.50;99.90;;;;;;4984875;28;20527;-44
2022/07/17 03:41:11;;;;;;;1.30;0.57;;;12.40;99.90;;;;;;4979801;28;20133;-43
2022/07/17 03:43:37;;;;;;;1.67;0.60;;;12.40;99.90;;;;;;4976092;28;20129;-43
2022/07/17 03:46:03;;;;;;;4.38;0.80;;;12.40;99.90;;;;;;4985840;28;20166;-43
2022/07/17 03:48:29;;;;;;;2.13;0.80;;;12.40;99.90;;;;;;4984680;28;20488;-44
2022/07/17 03:50:54;;;;;;;3.05;1.10;;;12.40;99.90;;;;;;4984506;28;20038;-44
2022/07/17 03:53:20;;;;;;;2.10;0.80;;;12.50;99.90;;;;;;4982977;28;20085;-44
2022/07/17 03:55:46;;;;;;;1.60;0.77;;;12.50;99.90;;;;;;4981892;28;20046;-44
2022/07/17 03:58:11;;;;;;;2.30;1.23;;;12.60;99.90;;;;;;4982006;28;20120;-43
2022/07/17 04:00:37;;;;;;;2.00;0.70;;;12.60;99.90;;;;;;4983888;28;20070;-42
2022/07/17 04:03:03;;;;;;;4.82;1.13;;;12.70;99.90;;;;;;4985532;28;20133;-42
2022/07/17 04:05:28;;;;;;;2.85;1.15;;;12.70;99.90;;;;;;4985756;28;20055;-44
2022/07/17 04:07:54;;;;;;;3.90;0.90;;;12.80;99.90;;;;;;4983622;28;20038;-43
2022/07/17 04:10:20;;;;;;;4.00;1.27;;;12.90;99.90;;;;;;4985032;28;20603;-44
2022/07/17 04:12:45;;;;;;;2.30;1.00;;;12.90;99.90;;;;;;4974723;28;20046;-43
2022/07/17 04:15:11;;;;;;;3.47;1.10;;;13.00;99.90;;;;;;4983439;28;20128;-43
2022/07/17 04:17:37;;;;;;;1.52;0.70;;;13.00;99.90;;;;;;4985038;28;20085;-44
2022/07/17 04:20:03;;;;;;;3.55;1.80;;;13.10;99.90;;;;;;4981843;28;20113;-41
2022/07/17 04:22:29;;;;;;;3.20;1.23;;;13.10;99.90;;;;;;4974068;28;20177;-42
2022/07/17 04:24:55;;;;;;;2.83;1.25;;;13.20;99.90;;;;;;4983494;28;20172;-43
2022/07/17 04:27:20;;;;;;;5.38;1.45;;;13.20;99.90;;;;;;4982342;28;20074;-44
2022/07/17 04:29:46;;;;;;;2.78;1.20;;;13.30;99.90;;;;;;4979889;28;20073;-43
2022/07/17 04:32:12;;;;;;;4.15;1.40;;;13.30;99.90;;;;;;4979508;28;20034;-44
2022/07/17 04:34:38;;;;;;;4.57;1.65;;;13.30;99.90;;;;;;4979396;28;20069;-43
2022/07/17 04:37:03;;;;;;;3.17;1.27;;;13.30;99.90;;;;;;4980372;28;20516;-46
2022/07/17 04:39:29;;;;;;;4.43;1.55;;;13.30;99.90;;;;;;4988140;28;20350;-43
2022/07/17 04:41:56;;;;;;;2.47;1.20;;;13.40;99.90;;;;;;4976246;28;20046;-43
2022/07/17 04:44:21;;;;;;;3.58;1.20;;;13.40;99.90;;;;;;4983961;28;20035;-42
2022/07/17 04:46:47;;;;;;;2.53;1.42;;;13.50;99.90;;;;;;4982071;28;20046;-43
2022/07/17 04:49:13;;;;;;;3.47;1.40;;;13.50;99.90;;;;;;4988734;28;20042;-46
2022/07/17 04:51:39;;;;;;;2.65;1.40;;;13.50;99.90;;;;;;4987697;28;20046;-43
2022/07/17 04:54:05;;;;;;;5.65;1.48;;;13.60;99.90;;;;;;4982691;28;20149;-43
2022/07/17 04:56:30;;;;;;;2.60;1.20;;;13.60;99.90;;;;;;4988901;28;20075;-42
2022/07/17 04:58:56;;;;;;;3.00;1.45;;;13.60;99.90;;;;;;4985084;28;20454;-42
2022/07/17 05:01:21;;;;;;;3.88;1.58;;;13.70;99.90;;;;;;4987944;28;20658;-45
2022/07/17 05:03:47;;;;;;;3.50;1.45;;;13.80;99.90;;;;;;4989711;28;20494;-45
2022/07/17 05:06:13;;;;;;;5.05;1.60;;;13.70;99.90;;;;;;4980049;28;20125;-44
2022/07/17 05:08:38;;;;;;;4.72;1.40;;;13.80;99.90;;;;;;4985896;28;20121;-44
2022/07/17 05:11:04;;;;;;;4.18;1.23;;;13.80;99.90;;;;;;4984896;28;20104;-43
2022/07/17 05:13:30;;;;;;;6.53;1.15;;;13.80;99.90;;;;;;4982877;28;20125;-43
2022/07/17 05:15:55;;;;;;;7.63;1.00;;;13.90;99.90;;;;;;4988028;28;20046;-42
2022/07/17 05:18:21;;;;;;;5.03;1.15;;;13.90;99.90;;;;;;4983339;28;20057;-43
2022/07/17 05:20:47;;;;;;;5.28;0.93;;;13.90;99.90;;;;;;4986521;28;20228;-42
2022/07/17 05:23:12;;;;;;;3.45;0.82;;;13.90;99.90;;;;;;4981160;28;20092;-44
2022/07/17 05:25:38;;;;;;;4.22;1.05;;;13.90;99.90;;;;;;4985135;28;20511;-45
2022/07/17 05:28:04;;;;;;;2.75;0.73;;;13.90;99.90;;;;;;4984915;28;20066;-44
2022/07/17 05:30:30;;;;;;;3.13;0.90;;;14.00;99.90;;;;;;4983294;28;20046;-49
2022/07/17 05:32:57;;;;;;;5.60;1.30;;;14.00;99.90;;;;;;4984471;28;20046;-47
2022/07/17 05:35:22;;;;;;;4.30;1.00;;;14.10;99.90;;;;;;4986189;28;20224;-43
2022/07/17 05:37:48;;;;;;;2.92;1.15;;;14.20;99.90;;;;;;4984011;28;20165;-42
2022/07/17 05:40:14;;;;;;;4.13;0.98;;;14.20;99.90;;;;;;4983099;28;20038;-43
2022/07/17 05:42:40;;;;;;;2.67;0.90;;;14.20;99.90;;;;;;4975836;28;20039;-44
2022/07/17 05:45:06;;;;;;;4.70;1.20;;;14.20;99.90;;;;;;4988271;28;20049;-43
2022/07/17 05:47:32;;;;;;;6.47;1.27;;;14.20;99.90;;;;;;4980146;28;20124;-44
2022/07/17 05:49:57;;;;;;;3.08;1.30;;;14.20;99.90;;;;;;4984579;28;20125;-47
2022/07/17 05:52:23;;;;;;;9.20;1.50;;;14.10;99.90;;;;;;4978093;28;20153;-43
2022/07/17 05:54:49;;;;;;;3.13;1.02;;;14.10;99.90;;;;;;4980738;28;20090;-42
2022/07/17 05:57:14;;;;;;;5.45;1.38;;;14.10;99.90;;;;;;4981769;28;20058;-46
2022/07/17 05:59:40;;;;;;;5.47;1.40;;;14.10;99.90;;;;;;4980294;28;20038;-45
2022/07/17 06:02:06;;;;;;;5.05;1.55;;;14.10;99.90;;;;;;4984275;28;20157;-46
2022/07/17 06:04:32;;;;;;;6.20;1.60;;;14.10;99.90;;;;;;4982575;28;20109;-44
2022/07/17 06:06:58;;;;;;;3.58;1.05;;;14.10;99.90;;;;;;4986280;28;20113;-42
2022/07/17 06:09:23;;;;;;;5.63;1.35;;;14.10;99.90;;;;;;4986713;28;20049;-43
2022/07/17 06:11:49;;;;;;;4.15;1.00;;;14.20;99.90;;;;;;4984068;28;20133;-45
2022/07/17 06:14:15;;;;;;;2.78;1.05;;;14.20;99.90;;;;;;4982387;28;20053;-43
2022/07/17 06:16:40;;;;;;;4.97;1.70;;;14.40;99.90;;;;;;4977151;28;20038;-43
2022/07/17 06:19:06;;;;;;;4.30;1.30;;;14.40;99.90;;;;;;4987652;28;20443;-42
2022/07/17 06:21:31;;;;;;;2.67;0.90;;;14.50;99.90;;;;;;4986181;28;20074;-42
2022/07/17 06:23:57;;;;;;;4.38;1.10;;;14.60;99.90;;;;;;4983642;28;20037;-44
2022/07/17 06:26:23;;;;;;;6.88;1.00;;;14.80;99.60;;;;;;4985887;28;20104;-43
2022/07/17 06:28:49;;;;;;;3.42;0.80;;;14.90;99.10;;;;;;4988426;28;20034;-43
2022/07/17 06:31:15;;;;;;;6.88;0.98;;;15.00;98.80;;;;;;4985077;28;20061;-47
2022/07/17 06:33:40;;;;;;;6.28;0.98;;;15.10;98.40;;;;;;4983491;28;20050;-45
2022/07/17 06:36:06;;;;;;;3.40;0.90;;;15.30;98.10;;;;;;4980386;28;20670;-46
2022/07/17 06:38:33;;;;;;;4.00;0.70;;;15.30;97.80;;;;;;4982165;28;20047;-43
2022/07/17 06:40:59;;;;;;;6.22;1.00;;;15.40;97.40;;;;;;4985834;28;20488;-43
2022/07/17 06:43:25;;;;;;;3.72;1.00;;;15.50;97.10;;;;;;4983795;28;20042;-43
2022/07/17 06:45:53;;;;;;;4.65;0.73;;;15.60;96.90;;;;;;4981264;28;20058;-45
2022/07/17 06:48:20;;;;;;;5.13;1.25;;;15.70;96.80;;;;;;4982107;28;20046;-43
2022/07/17 06:50:46;;;;;;;6.05;0.90;;;15.80;96.40;;;;;;4983718;28;20524;-44
2022/07/17 06:53:12;;;;;;;4.05;0.90;;;15.90;96.20;;;;;;4986915;28;20133;-43
2022/07/17 06:55:37;;;;;;;6.15;0.90;;;16.00;96.10;;;;;;4981401;28;20439;-43
2022/07/17 06:58:03;;;;;;;2.60;0.60;;;16.10;95.60;;;;;;4983238;28;20368;-43
2022/07/17 07:00:29;;;;;;;3.08;0.70;;;16.20;95.00;;;;;;4984761;28;20063;-43
2022/07/17 07:02:55;;;;;;;5.05;0.60;;;16.20;94.40;;;;;;4984629;28;20030;-43
2022/07/17 07:05:20;;;;;;;4.32;0.80;;;16.20;94.00;;;;;;4983466;28;20400;-43
2022/07/17 07:07:46;;;;;;;5.35;0.57;;;16.30;93.90;;;;;;4981426;28;20077;-43
2022/07/17 07:10:12;;;;;;;3.20;0.45;;;16.30;93.70;;;;;;4985801;28;20050;-45
2022/07/17 07:12:38;;;;;;;1.80;0.65;;;16.40;93.30;;;;;;4976440;28;20042;-42
2022/07/17 07:15:04;;;;;;;4.43;0.57;;;16.40;92.90;;;;;;4982597;28;20575;-45
2022/07/17 07:17:31;;;;;;;3.80;0.63;;;16.50;92.80;;;;;;4978950;28;20034;-42
2022/07/17 07:19:58;;;;;;;4.47;0.90;;;16.60;92.80;;;;;;4980909;28;20500;-43
2022/07/17 07:22:24;;;;;;;2.75;0.60;;;16.60;92.50;;;;;;4980983;28;20041;-45
2022/07/17 07:24:49;;;;;;;3.53;0.85;;;16.70;92.60;;;;;;4984989;28;20789;-44
2022/07/17 07:27:15;;;;;;;5.88;0.90;;;16.70;92.80;;;;;;4984154;28;20121;-43
2022/07/17 07:29:41;;;;;;;2.78;0.45;;;16.80;92.50;;;;;;4984424;28;20042;-43
2022/07/17 07:32:06;;;;;;;2.75;0.60;;;16.90;92.40;;;;;;4983643;28;20046;-45
2022/07/17 07:34:32;;;;;;;2.03;0.60;;;16.90;92.30;;;;;;4981900;28;20050;-43
2022/07/17 07:36:58;;;;;;;4.05;0.45;;;17.00;92.20;;;;;;4982970;28;20129;-44
2022/07/17 07:39:23;;;;;;;2.88;0.40;;;17.10;91.90;;;;;;4983028;28;20129;-43
2022/07/17 07:41:49;;;;;;;3.33;0.32;;;17.20;91.80;;;;;;4982481;28;20039;-43
2022/07/17 07:44:15;;;;;;;5.90;0.88;;;17.30;91.70;;;;;;4981938;28;20484;-45
2022/07/17 07:46:41;;;;;;;3.85;0.55;;;17.30;91.40;;;;;;4979517;28;20440;-43
2022/07/17 07:49:07;;;;;;;9.07;0.68;;;17.40;91.10;;;;;;4981353;28;20039;-43
2022/07/17 07:51:32;;;;;;;4.25;0.60;;;17.40;91.00;;;;;;4975369;28;20122;-44
2022/07/17 07:53:58;;;;;;;5.13;0.73;;;17.40;90.80;;;;;;4977674;28;20034;-47
2022/07/17 07:56:24;;;;;;;4.25;0.60;;;17.50;90.90;;;;;;4983821;28;20036;-44
2022/07/17 07:58:49;;;;;;;4.60;0.55;;;17.60;90.80;;;;;;4976516;28;20093;-45
2022/07/17 08:01:15;;;;;;;6.22;0.80;;;17.60;90.60;;;;;;4981675;28;20050;-45
2022/07/17 08:03:40;;;;;;;4.95;0.65;;;17.60;90.60;;;;;;4981048;28;20065;-45
2022/07/17 08:06:06;;;;;;;2.90;0.70;;;17.70;90.30;;;;;;4983519;28;20094;-46
2022/07/17 08:08:32;;;;;;;2.20;0.63;;;17.70;90.60;;;;;;4984197;28;20042;-46
2022/07/17 08:10:58;;;;;;;4.93;0.57;;;17.80;90.60;;;;;;4982707;28;20136;-43
2022/07/17 08:13:23;;;;;;;5.75;0.50;;;17.90;90.60;;;;;;4982702;28;20047;-44
2022/07/17 08:15:49;;;;;;;4.15;0.52;;;17.90;90.20;;;;;;4982453;28;20038;-45
2022/07/17 08:18:15;;;;;;;3.97;1.17;;;18.00;90.10;;;;;;4985577;28;20113;-46
2022/07/17 08:20:41;;;;;;;2.22;0.50;;;18.10;90.20;;;;;;5002095;28;20046;-44
2022/07/17 08:23:06;;;;;;;2.05;0.40;;;18.30;90.10;;;;;;4987787;28;20046;-44
2022/07/17 08:25:33;;;;;;;1.83;0.50;;;18.40;90.20;;;;;;4986034;28;20062;-45
2022/07/17 08:27:59;;;;;;;3.90;0.40;;;18.50;90.00;;;;;;4986470;28;20100;-44
2022/07/17 08:30:25;;;;;;;3.60;0.90;;;18.60;89.30;;;;;;4985640;28;20098;-44
2022/07/17 08:32:51;;;;;;;4.30;0.70;;;18.70;88.80;;;;;;4989924;28;20065;-43
2022/07/17 08:35:17;;;;;;;2.67;0.38;;;18.70;88.80;;;;;;4988941;28;20467;-44
2022/07/17 08:37:48;;;;;;;5.45;0.60;;;18.80;89.10;;;;;;4985627;28;20042;-45
2022/07/17 08:40:22;;;;;;;4.57;0.52;;;18.80;88.20;;;;;;4976768;28;20770;-45
2022/07/17 08:42:48;;;;;;;3.00;0.70;;;18.90;88.80;;;;;;4986457;28;20530;-46
2022/07/17 08:45:14;;;;;;;2.15;0.35;;;19.00;88.60;;;;;;4983237;28;20476;-48
2022/07/17 08:47:41;;;;;;;2.13;0.40;;;19.20;88.20;;;;;;4983250;28;20045;-43
2022/07/17 08:50:11;;;;;;;2.13;0.40;;;19.30;87.50;;;;;;4984331;28;20143;-44
2022/07/17 08:52:38;;;;;;;1.27;0.40;;;19.30;86.60;;;;;;4982229;28;20058;-44
2022/07/17 08:55:07;;;;;;;2.35;0.50;;;19.40;85.90;;;;;;4983503;28;20043;-44
2022/07/17 08:57:35;;;;;;;2.95;0.32;;;19.40;85.10;;;;;;4986677;28;21388;-43
2022/07/17 09:00:01;;;;;;;2.80;0.52;;;19.50;86.00;;;;;;4984781;28;20046;-45
2022/07/17 09:02:27;;;;;;;1.75;0.30;;;19.60;85.40;;;;;;4985335;28;20050;-44
2022/07/17 09:04:54;;;;;;;3.83;0.45;;;19.70;85.10;;;;;;4982001;28;20514;-44
2022/07/17 09:07:20;;;;;;;4.35;0.40;;;19.70;84.00;;;;;;4982730;28;20444;-43
2022/07/17 09:09:52;;;;;;;2.95;0.50;;;19.80;83.70;;;;;;4982221;28;20382;-43
2022/07/17 09:12:23;;;;;;;;;;;19.90;80.10;;;;;;4970808;28;20050;-43
2022/07/17 09:14:48;;;;;;;1.58;0.40;;;19.80;80.60;;;;;;4981026;28;19950;-47
2022/07/17 09:17:14;;;;;;;2.13;0.50;;;19.70;82.40;;;;;;4979228;28;20047;-46
2022/07/17 09:19:42;;;;;;;2.25;0.32;;;19.70;82.70;;;;;;4979057;28;20035;-43
2022/07/17 09:22:09;;;;;;;3.08;0.50;;;19.80;82.90;;;;;;4983034;28;20042;-44
2022/07/17 09:24:54;;;;;;;2.65;0.45;;;19.80;83.00;;;;;;4983082;28;20034;-44
2022/07/17 09:27:31;;;;;;;3.85;0.82;;;19.80;80.60;;;;;;4988169;28;20126;-41
2022/07/17 09:29:58;;;;;;;2.22;0.60;;;19.90;82.10;;;;;;4981894;28;20050;-41
2022/07/17 09:32:26;;;;;;;3.28;0.50;;;20.10;81.40;;;;;;4982547;28;20525;-40
2022/07/17 09:34:54;;;;;;;3.10;0.30;;;20.30;79.60;;;;;;4989199;28;20518;-40
2022/07/17 09:37:23;;;;;;;1.70;0.60;;;20.50;78.50;;;;;;4991153;28;20449;-39
2022/07/17 09:39:49;;;;;;;3.22;0.40;;;20.70;77.60;;;;;;4983924;28;20153;-39
2022/07/17 09:42:28;;;;;;;2.35;0.50;;;20.90;76.70;;;;;;4981428;28;20133;-40
2022/07/17 09:45:05;;;;;;;1.52;0.40;;;21.00;75.00;;;;;;4984284;28;20050;-40
2022/07/17 09:47:34;;;;;;;1.83;0.38;;;21.10;74.30;;;;;;4981561;28;20424;-40
2022/07/17 09:50:02;;;;;;;3.38;0.40;;;21.30;72.50;;;;;;4980838;28;20196;-43
2022/07/17 09:52:30;;;;;;;3.65;0.50;;;21.40;70.70;;;;;;4981616;28;20322;-52
2022/07/17 09:54:56;;;;;;;2.45;0.50;;;21.30;68.40;;;;;;4978060;28;20443;-53
2022/07/17 09:57:25;;;;;;;1.85;0.40;;;21.30;67.70;;;;;;4982063;28;20073;-51
2022/07/17 09:59:54;;;;;;;2.03;0.40;;;21.30;66.60;;;;;;4975927;28;20040;-48
2022/07/17 10:02:21;;;;;;;2.00;0.40;;;21.30;66.60;;;;;;4982180;28;20554;-50
2022/07/17 10:04:48;;;;;;;3.85;0.73;;;21.40;67.70;;;;;;4984656;28;20753;-50
2022/07/17 10:07:13;;;;;;;5.50;0.70;;;21.60;65.50;;;;;;4983006;28;20506;-39
2022/07/17 10:09:40;;;;;;;3.45;0.45;;;21.60;64.90;;;;;;4985274;28;20046;-38
2022/07/17 10:12:07;;;;;;;2.50;0.40;;;21.60;64.00;;;;;;4981924;28;22029;-40
2022/07/17 10:14:38;;;;;;;2.83;0.50;;;21.80;62.80;;;;;;4984284;28;20045;-39
2022/07/17 10:17:14;;;;;;;1.45;0.40;;;21.90;61.50;;;;;;4981251;28;20078;-40
2022/07/17 10:20:09;;;;;;;2.70;0.70;;;21.90;59.70;;;;;;4984620;28;20066;-41
2022/07/17 10:22:46;;;;;;;2.00;0.35;;;22.10;60.60;;;;;;4970109;28;20043;-43
2022/07/17 10:25:14;;;;;;;4.65;0.60;;;22.20;60.00;;;;;;4982894;28;20483;-42
2022/07/17 10:27:50;;;;;;;2.30;0.40;;;22.30;59.40;;;;;;4978986;28;20364;-43
2022/07/17 10:30:26;;;;;;;2.50;0.40;;;22.40;58.70;;;;;;4976289;28;20034;-43
2022/07/17 10:33:00;;;;;;;2.53;0.40;;;22.50;57.50;;;;;;4999059;28;20034;-48
2022/07/17 10:35:28;;;;;;;2.00;0.40;;;22.50;56.20;;;;;;4978684;28;20511;-43
2022/07/17 10:37:58;;;;;;;1.25;0.50;;;22.60;57.10;;;;;;4979931;28;20496;-39
2022/07/17 10:40:28;;;;;;;2.88;0.50;;;22.70;56.70;;;;;;4982578;28;20087;-46
2022/07/17 10:43:00;;;;;;;4.00;0.70;;;22.70;55.90;;;;;;4979254;28;20046;-43
2022/07/17 10:45:29;;;;;;;2.80;0.60;;;22.70;57.00;;;;;;4983447;28;20483;-42
2022/07/17 10:48:04;;;;;;;1.73;0.47;;;22.80;56.50;;;;;;4976896;28;20356;-39
2022/07/17 10:50:41;;;;;;;1.88;0.50;;;22.80;55.00;;;;;;4990352;28;20128;-39
2022/07/17 10:53:16;;;;;;;3.28;0.60;;;22.90;55.80;;;;;;4980015;28;20061;-39
2022/07/17 10:55:44;;;;;;;2.50;0.40;;;23.10;56.80;;;;;;4976383;28;20407;-39
2022/07/17 10:58:34;;;;;;;3.53;0.50;;;23.30;55.40;;;;;;4985898;28;20049;-38
2022/07/17 11:01:13;;;;;;;5.20;0.60;;;23.40;54.50;;;;;;4984550;28;20129;-42
2022/07/17 11:03:51;;;;;;;2.25;0.50;;;23.50;53.80;;;;;;4987761;28;20133;-43
2022/07/17 11:06:24;;;;;;;1.77;0.70;;;23.50;53.60;;;;;;4979230;28;20055;-45
2022/07/17 11:08:56;;;;;;;1.67;0.60;;;23.60;52.80;;;;;;4982134;28;20073;-43
2022/07/17 11:11:46;;;;;;;2.58;0.40;;;23.50;52.80;;;;;;4980128;28;20264;-44
2022/07/17 11:14:23;;;;;;;1.95;0.50;;;23.60;52.90;;;;;;4980067;28;20093;-43
2022/07/17 11:16:55;;;;;;;4.25;1.02;;;23.80;52.30;;;;;;4974981;28;20301;-44
2022/07/17 11:19:21;;;;;;;1.88;0.57;;;23.80;52.30;;;;;;4983033;28;20038;-39
2022/07/17 11:21:48;;;;;;;2.35;0.70;;;24.00;52.10;;;;;;4973553;28;20039;-39
2022/07/17 11:24:14;;;;;;;2.47;0.60;;;24.10;51.70;;;;;;4985424;28;20121;-39
2022/07/17 11:26:39;;;;;;;2.15;0.50;;;24.20;51.70;;;;;;4984969;28;20130;-40
2022/07/17 11:29:05;;;;;;;2.92;0.93;;;24.20;51.00;;;;;;4987237;28;20069;-40
2022/07/17 11:31:31;;;;;;;4.13;0.60;;;24.30;50.70;;;;;;4979862;28;20049;-39
2022/07/17 11:34:00;;;;;;;5.05;0.90;;;24.40;50.40;;;;;;4984587;28;20041;-39
2022/07/17 11:36:36;;;;;;;3.33;0.52;;;24.20;50.30;;;;;;4981113;28;20125;-41
2022/07/17 11:39:06;;;;;;;2.85;0.70;;;24.10;50.50;;;;;;4987534;28;20077;-38
2022/07/17 11:41:37;;;;;;;3.33;0.63;;;23.90;50.40;;;;;;4983863;28;20060;-39
2022/07/17 11:44:10;;;;;;;3.30;0.80;;;23.90;51.10;;;;;;4984721;28;20034;-51
2022/07/17 11:46:37;;;;;;;3.08;0.60;;;23.90;51.50;;;;;;4983067;28;20038;-37
2022/07/17 11:49:03;;;;;;;2.47;0.60;;;23.90;51.20;;;;;;4980130;28;20065;-37
2022/07/17 11:51:44;;;;;;;6.35;0.75;;;24.00;50.90;;;;;;4989952;28;20875;-47
2022/07/17 11:54:14;;;;;;;4.60;0.57;;;24.20;51.40;;;;;;4984702;28;20500;-44
2022/07/17 11:56:41;;;;;;;2.55;0.60;;;24.40;50.40;;;;;;4990474;28;20042;-46
2022/07/17 11:59:08;;;;;;;2.30;0.70;;;24.60;49.70;;;;;;4986192;28;20045;-47
2022/07/17 12:01:42;;;;;;;3.35;0.52;;;24.80;49.60;;;;;;4984429;28;20035;-44
2022/07/17 12:04:14;;;;;;;2.45;0.70;;;25.00;48.50;;;;;;4990214;28;20043;-44
2022/07/17 12:06:40;;;;;;;3.60;0.60;;;25.10;47.40;;;;;;4989653;28;20169;-42
2022/07/17 12:09:07;;;;;;;2.90;0.57;;;25.10;47.40;;;;;;4990572;28;20092;-43
2022/07/17 12:11:44;;;;;;;3.97;0.77;;;25.10;47.80;;;;;;4987939;28;20034;-44
2022/07/17 12:14:09;;;;;;;2.03;0.50;;;25.20;48.10;;;;;;4980953;28;20046;-46
2022/07/17 12:16:36;;;;;;;2.65;0.60;;;25.40;47.40;;;;;;4985253;28;20057;-43
2022/07/17 12:19:18;;;;;;;4.03;0.80;;;25.60;47.70;;;;;;4987629;28;20519;-44
2022/07/17 12:21:59;;;;;;;1.27;0.70;;;25.80;46.40;;;;;;4982622;28;20089;-43
2022/07/17 12:24:36;;;;;;;2.33;0.80;;;25.90;46.40;;;;;;4989487;28;20042;-43
2022/07/17 12:27:05;;;;;;;3.65;0.93;;;26.10;46.40;;;;;;4990005;28;20054;-44
2022/07/17 12:29:31;;;;;;;2.45;0.50;;;26.10;45.80;;;;;;4988820;28;20034;-43
2022/07/17 12:32:17;;;;;;;2.20;0.98;;;26.10;46.30;;;;;;4982630;28;20562;-43
2022/07/17 12:34:48;;;;;;;4.40;0.70;;;26.20;46.70;;;;;;4984895;28;20038;-41
2022/07/17 12:37:21;;;;;;;2.83;0.88;;;26.30;45.10;;;;;;4991446;28;20396;-43
2022/07/17 12:39:48;;;;;;;2.63;0.82;;;26.40;45.10;;;;;;4986183;28;20093;-42
2022/07/17 12:42:17;;;;;;;3.38;0.70;;;26.40;45.10;;;;;;4989278;28;20426;-45
2022/07/17 12:44:43;;;;;;;3.80;1.00;;;26.40;44.70;;;;;;4985088;28;20061;-44
2022/07/17 12:47:09;;;;;;;3.35;0.95;;;26.40;44.80;;;;;;4982436;28;20545;-46
2022/07/17 12:49:35;;;;;;;3.08;0.90;;;26.50;44.40;;;;;;4982111;28;20038;-44